Time;durP1;ratioP1;P1;durP2;ratioP2;P2;SDS_P1;SDS_P2;PMS_P1;PMS_P2;Temp;Humidity;BMP_temperature;BMP_pressure;BME280_temperature;BME280_humidity;BME280_pressure;Samples;Min_cycle;Max_cycle;Signal;HPM_P1;HPM_P2
2023/07/18 00:00:56;;;;;;;13.90;11.50;;;;;;;15.65;100.00;98872.07;135679;1275;22531;-83
2023/07/18 00:04:14;;;;;;;12.40;10.00;;;;;;;15.61;100.00;98871.03;135522;1275;22527;-83
2023/07/18 00:07:16;;;;;;;12.40;11.10;;;;;;;15.57;100.00;98878.23;135511;1274;22538;-84
2023/07/18 00:10:19;;;;;;;13.80;11.60;;;;;;;15.54;100.00;98880.16;135512;1274;22595;-83
2023/07/18 00:13:21;;;;;;;16.90;10.80;;;;;;;15.50;100.00;98882.98;135546;1274;22542;-83
2023/07/18 00:16:23;;;;;;;11.50;10.30;;;;;;;15.47;100.00;98884.23;135477;1274;22665;-82
2023/07/18 00:19:27;;;;;;;10.60;9.60;;;;;;;15.45;100.00;98880.39;135650;1271;22542;-84
2023/07/18 00:22:29;;;;;;;12.30;9.90;;;;;;;15.42;100.00;98882.52;135654;1274;22553;-82
2023/07/18 00:25:32;;;;;;;12.20;11.20;;;;;;;15.40;100.00;98883.76;135647;1274;22541;-82
2023/07/18 00:28:34;;;;;;;176.50;20.40;;;;;;;15.37;100.00;98890.45;135626;1274;22540;-80
2023/07/18 00:31:37;;;;;;;13.40;12.10;;;;;;;15.36;100.00;98894.31;135679;1274;22543;-82
2023/07/18 00:34:41;;;;;;;16.30;11.60;;;;;;;15.35;100.00;98899.92;135650;1274;22559;-81
2023/07/18 00:37:44;;;;;;;12.30;10.90;;;;;;;15.31;100.00;98900.65;135628;1274;22537;-83
2023/07/18 00:40:46;;;;;;;11.60;10.30;;;;;;;15.28;100.00;98902.95;135698;1274;22612;-81
2023/07/18 00:43:49;;;;;;;60.60;12.80;;;;;;;15.24;100.00;98899.11;135737;1274;24855;-79
2023/07/18 00:46:51;;;;;;;12.80;10.90;;;;;;;15.21;100.00;98894.75;135531;1274;22551;-82
2023/07/18 00:49:54;;;;;;;12.40;11.20;;;;;;;15.19;100.00;98896.69;135536;1274;22529;-82
2023/07/18 00:52:57;;;;;;;15.70;11.70;;;;;;;15.15;100.00;98897.77;135681;1273;25315;-82
2023/07/18 00:55:59;;;;;;;13.70;11.40;;;;;;;15.10;100.00;98898.49;135621;1275;22537;-81
2023/07/18 00:59:01;;;;;;;19.60;12.40;;;;;;;15.06;100.00;98892.04;135673;1274;23189;-82
2023/07/18 01:02:05;;;;;;;12.60;10.60;;;;;;;15.06;100.00;98885.90;135659;1274;25904;-81
2023/07/18 01:05:10;;;;;;;26.90;18.00;;;;;;;15.08;100.00;98885.90;135541;1274;25227;-81
2023/07/18 01:08:13;;;;;;;81.70;56.50;;;;;;;15.11;100.00;98880.61;135729;1274;23008;-81
2023/07/18 01:11:15;;;;;;;226.10;30.40;;;;;;;15.13;100.00;98871.14;135771;1274;25262;-81
2023/07/18 01:14:18;;;;;;;39.50;16.10;;;;;;;15.18;100.00;98869.00;135755;1274;22582;-82
2023/07/18 01:17:20;;;;;;;19.80;13.60;;;;;;;15.24;100.00;98869.14;135735;1274;22537;-82
2023/07/18 01:20:23;;;;;;;37.60;21.70;;;;;;;15.28;100.00;98877.17;135755;1274;24387;-82
2023/07/18 01:23:26;;;;;;;33.90;17.90;;;;;;;15.42;100.00;98880.77;135639;1275;22545;-82
2023/07/18 01:26:29;;;;;;;29.00;19.50;;;;;;;15.55;100.00;98882.09;135676;1274;22548;-81
2023/07/18 01:29:32;;;;;;;69.20;21.30;;;;;;;15.70;100.00;98881.67;135536;1274;22563;-82
2023/07/18 01:32:35;;;;;;;43.10;23.10;;;;;;;15.87;100.00;98885.38;135607;1273;24857;-82
2023/07/18 01:35:37;;;;;;;36.20;20.50;;;;;;;16.00;100.00;98886.15;135583;1274;22545;-81
2023/07/18 01:38:40;;;;;;;175.40;28.10;;;;;;;16.05;100.00;98898.21;135519;1275;22635;-81
2023/07/18 01:41:42;;;;;;;32.00;23.60;;;;;;;16.13;100.00;98904.63;135623;1274;24221;-81
2023/07/18 01:44:45;;;;;;;31.40;25.80;;;;;;;16.31;100.00;98913.94;135579;1275;22541;-81
2023/07/18 01:47:47;;;;;;;34.30;29.60;;;;;;;16.48;100.00;98921.33;135566;1274;22547;-81
2023/07/18 01:50:50;;;;;;;41.30;29.00;;;;;;;16.62;100.00;98930.50;135625;1274;22667;-81
2023/07/18 01:53:53;;;;;;;31.40;28.10;;;;;;;16.72;100.00;98937.27;135590;1274;22534;-81
2023/07/18 01:56:55;;;;;;;36.90;30.10;;;;;;;16.78;100.00;98935.98;135626;1274;22558;-81
2023/07/18 01:59:57;;;;;;;35.80;31.90;;;;;;;16.83;100.00;98945.59;135583;1274;22544;-83
2023/07/18 02:03:00;;;;;;;37.00;30.40;;;;;;;16.85;100.00;98952.59;135569;1274;26021;-82
2023/07/18 02:06:03;;;;;;;38.30;30.30;;;;;;;16.88;100.00;98955.36;135627;1275;22534;-83
2023/07/18 02:09:05;;;;;;;34.90;26.90;;;;;;;16.91;100.00;98958.31;135641;1274;22527;-82
2023/07/18 02:12:09;;;;;;;32.30;24.30;;;;;;;16.94;100.00;98970.41;135662;1275;22530;-82
2023/07/18 02:15:13;;;;;;;29.50;21.10;;;;;;;16.94;100.00;98977.61;135633;1274;24176;-80
2023/07/18 02:18:15;;;;;;;24.30;17.20;;;;;;;16.98;100.00;98986.54;135630;1275;22530;-81
2023/07/18 02:21:17;;;;;;;24.30;16.30;;;;;;;17.02;100.00;98987.02;135637;1275;25955;-81
2023/07/18 02:24:20;;;;;;;18.90;14.30;;;;;;;17.02;100.00;98994.93;135759;1274;22643;-80
2023/07/18 02:27:22;;;;;;;18.60;12.80;;;;;;;16.99;100.00;98999.35;135548;1274;23241;-81
2023/07/18 02:30:25;;;;;;;22.40;12.40;;;;;;;16.95;100.00;99010.46;135811;1275;22664;-80
2023/07/18 02:33:27;;;;;;;18.90;11.10;;;;;;;16.91;100.00;99021.94;135755;1274;22562;-83
2023/07/18 02:36:30;;;;;;;22.20;10.50;;;;;;;16.86;100.00;99034.30;135590;1275;25268;-83
2023/07/18 02:39:33;;;;;;;18.10;10.20;;;;;;;16.81;100.00;99043.66;135574;1274;24237;-83
2023/07/18 02:42:36;;;;;;;18.90;8.60;;;;;;;16.76;100.00;99055.50;135581;1274;22534;-81
2023/07/18 02:45:38;;;;;;;16.90;8.40;;;;;;;16.72;100.00;99065.89;135566;1274;22537;-83
2023/07/18 02:48:43;;;;;;;10.10;7.50;;;;;;;16.64;100.00;99071.93;136259;1275;24170;-82
2023/07/18 02:51:46;;;;;;;15.00;7.30;;;;;;;16.59;100.00;99078.80;136324;1274;24222;-82
2023/07/18 02:54:50;;;;;;;12.00;7.10;;;;;;;16.55;100.00;99072.70;136164;1272;22550;-81
2023/07/18 02:57:53;;;;;;;11.00;6.40;;;;;;;16.53;100.00;99063.23;135942;1274;25013;-81
2023/07/18 03:00:55;;;;;;;9.90;6.70;;;;;;;16.52;100.00;99075.70;135847;1274;24241;-81
2023/07/18 03:03:58;;;;;;;21.00;7.90;;;;;;;16.50;100.00;99080.11;135741;1274;23620;-81
2023/07/18 03:07:02;;;;;;;11.60;6.60;;;;;;;16.48;100.00;99080.11;135761;1274;22547;-81
2023/07/18 03:10:05;;;;;;;13.40;6.00;;;;;;;16.45;100.00;99090.48;135775;1274;25962;-81
2023/07/18 03:13:08;;;;;;;10.60;5.90;;;;;;;16.45;100.00;99096.46;135812;1274;25401;-82
2023/07/18 03:16:12;;;;;;;9.20;6.70;;;;;;;16.44;100.00;99103.14;135214;1274;26786;-81
2023/07/18 03:19:15;;;;;;;9.40;6.00;;;;;;;16.44;100.00;99108.41;135861;1274;22541;-81
2023/07/18 03:22:20;;;;;;;10.30;6.70;;;;;;;16.44;100.00;99121.58;135851;1275;22636;-83
2023/07/18 03:25:22;;;;;;;11.80;6.00;;;;;;;16.47;100.00;99118.94;135675;1274;22562;-83
2023/07/18 03:28:25;;;;;;;9.70;5.10;;;;;;;16.52;100.00;99114.53;135718;1274;22584;-83
2023/07/18 03:31:27;;;;;;;8.80;6.20;;;;;;;16.55;100.00;99104.84;135742;1274;22654;-82
2023/07/18 03:34:30;;;;;;;9.00;5.10;;;;;;;16.57;100.00;99114.31;135866;1275;22573;-82
2023/07/18 03:37:32;;;;;;;11.00;5.70;;;;;;;16.58;100.00;99114.66;136042;1274;22540;-83
2023/07/18 03:40:35;;;;;;;21.50;5.90;;;;;;;16.61;100.00;99113.23;135917;1272;22533;-82
2023/07/18 03:43:37;;;;;;;11.90;6.00;;;;;;;16.65;100.00;99108.29;135977;1267;22555;-83
2023/07/18 03:46:40;;;;;;;22.40;6.50;;;;;;;16.60;100.00;99107.26;136089;1275;22548;-83
2023/07/18 03:49:42;;;;;;;11.70;4.80;;;;;;;16.52;100.00;99111.54;136394;1268;22583;-82
2023/07/18 03:52:45;;;;;;;36.60;6.70;;;;;;;16.49;100.00;99109.45;135993;1274;23601;-82
2023/07/18 03:55:47;;;;;;;14.30;8.00;;;;;;;16.50;100.00;99119.64;136079;1267;22721;-82
2023/07/18 03:58:50;;;;;;;39.30;18.90;;;;;;;16.53;100.00;99120.84;136177;1274;24327;-81
2023/07/18 04:01:52;;;;;;;12.30;6.50;;;;;;;16.56;100.00;99117.65;136119;1274;24305;-82
2023/07/18 04:04:55;;;;;;;586.30;44.10;;;;;;;16.56;100.00;99118.54;135899;1274;24354;-81
2023/07/18 04:07:57;;;;;;;15.20;6.70;;;;;;;16.63;100.00;99120.08;136179;1275;22926;-81
2023/07/18 04:11:00;;;;;;;14.10;5.40;;;;;;;16.73;100.00;99124.58;136086;1274;22570;-81
2023/07/18 04:14:02;;;;;;;17.80;6.30;;;;;;;16.93;100.00;99131.08;136312;1274;22691;-81
2023/07/18 04:17:05;;;;;;;50.40;9.10;;;;;;;17.08;100.00;99131.46;136134;1274;22550;-81
2023/07/18 04:20:07;;;;;;;23.40;6.50;;;;;;;17.25;100.00;99132.71;136171;1274;22655;-80
2023/07/18 04:23:10;;;;;;;15.30;6.50;;;;;;;17.33;100.00;99144.05;136420;1274;22547;-81
2023/07/18 04:26:13;;;;;;;9.20;5.40;;;;;;;17.37;100.00;99145.27;136142;1267;22593;-82
2023/07/18 04:29:15;;;;;;;8.80;5.30;;;;;;;17.49;100.00;99149.53;136234;1274;24336;-82
2023/07/18 04:32:18;;;;;;;13.50;5.40;;;;;;;17.59;100.00;99148.90;136425;1274;22949;-81
2023/07/18 04:35:20;;;;;;;8.40;5.00;;;;;;;17.62;100.00;99147.45;136324;1274;22607;-81
2023/07/18 04:38:23;;;;;;;12.20;6.10;;;;;;;17.65;100.00;99150.77;136513;1261;24261;-80
2023/07/18 04:41:25;;;;;;;11.80;5.50;;;;;;;17.71;100.00;99153.35;135025;1274;25327;-82
2023/07/18 04:44:27;;;;;;;7.40;5.30;;;;;;;17.95;100.00;99162.92;136035;1274;25050;-81
2023/07/18 04:47:30;;;;;;;10.30;4.80;;;;;;;18.20;100.00;99167.52;135865;1274;22953;-81
2023/07/18 04:50:32;;;;;;;11.40;4.70;;;;;;;18.44;100.00;99167.91;135355;1274;22558;-82
2023/07/18 04:53:35;;;;;;;7.70;4.30;;;;;;;18.61;100.00;99178.08;136109;1274;22554;-81
2023/07/18 04:56:39;;;;;;;12.40;4.90;;;;;;;18.69;100.00;99184.48;136186;1274;22530;-82
2023/07/18 04:59:42;;;;;;;7.20;5.00;;;;;;;18.75;100.00;99190.03;136297;1274;22537;-81
2023/07/18 05:02:45;;;;;;;8.40;4.80;;;;;;;18.95;100.00;99192.52;136157;1274;22063;-79
2023/07/18 05:05:47;;;;;;;12.60;4.90;;;;;;;19.17;100.00;99193.23;136124;1271;24894;-81
2023/07/18 05:08:50;;;;;;;10.40;5.20;;;;;;;19.24;100.00;99197.19;135939;1275;22554;-82
2023/07/18 05:11:52;;;;;;;7.60;5.20;;;;;;;19.22;100.00;99200.58;136157;1275;22531;-82
2023/07/18 05:14:55;;;;;;;5.00;4.30;;;;;;;19.40;100.00;99197.08;135942;1274;23073;-81
2023/07/18 05:17:57;;;;;;;9.80;4.60;;;;;;;19.53;100.00;99203.20;136060;1274;22950;-79
2023/07/18 05:21:00;;;;;;;7.20;4.80;;;;;;;19.46;100.00;99202.96;135128;1274;22607;-80
2023/07/18 05:24:02;;;;;;;8.80;4.60;;;;;;;19.60;100.00;99208.21;134891;1274;26916;-80
2023/07/18 05:27:05;;;;;;;12.50;4.90;;;;;;;19.77;100.00;99207.35;134927;1274;22628;-80
2023/07/18 05:30:08;;;;;;;9.00;4.40;;;;;;;19.84;100.00;99214.09;135020;1274;23069;-79
2023/07/18 05:33:10;;;;;;;12.40;5.20;;;;;;;19.83;100.00;99212.54;134882;1274;22555;-80
2023/07/18 05:36:13;;;;;;;10.90;5.60;;;;;;;19.90;100.00;99217.33;135125;1274;22550;-80
2023/07/18 05:39:15;;;;;;;8.00;4.90;;;;;;;20.01;100.00;99213.42;135120;1274;23029;-80
2023/07/18 05:42:17;;;;;;;8.50;4.90;;;;;;;20.15;100.00;99216.16;135116;1274;24019;-79
2023/07/18 05:45:20;;;;;;;8.20;4.10;;;;;;;20.14;100.00;99225.20;135049;1274;22565;-78
2023/07/18 05:48:22;;;;;;;7.30;4.60;;;;;;;20.14;100.00;99216.51;134926;1274;26644;-79
2023/07/18 05:51:25;;;;;;;7.40;4.90;;;;;;;20.26;100.00;99215.73;134929;1274;22592;-78
2023/07/18 05:54:29;;;;;;;9.30;5.10;;;;;;;20.41;100.00;99216.16;135015;1274;22573;-76
2023/07/18 05:57:31;;;;;;;7.30;4.90;;;;;;;20.49;100.00;99222.35;134810;1274;23047;-79
2023/07/18 06:00:33;;;;;;;5.10;4.10;;;;;;;20.57;100.00;99226.58;135019;1274;22675;-80
2023/07/18 06:03:36;;;;;;;10.00;4.50;;;;;;;20.63;100.00;99224.31;134835;1274;22530;-79
2023/07/18 06:06:39;;;;;;;8.10;3.80;;;;;;;20.73;100.00;99226.20;135007;1274;22536;-79
2023/07/18 06:09:42;;;;;;;9.20;4.40;;;;;;;20.83;100.00;99228.48;134961;1261;23323;-79
2023/07/18 06:12:44;;;;;;;18.70;4.80;;;;;;;20.88;100.00;99227.29;135086;1274;24308;-80
2023/07/18 06:15:47;;;;;;;4.40;4.00;;;;;;;20.90;100.00;99232.92;135102;1275;22578;-80
2023/07/18 06:18:49;;;;;;;8.00;3.80;;;;;;;20.88;100.00;99231.89;136187;1275;22557;-80
2023/07/18 06:21:52;;;;;;;11.10;3.90;;;;;;;20.95;100.00;99238.10;136481;1275;25412;-79
2023/07/18 06:24:54;;;;;;;6.80;4.00;;;;;;;21.05;100.00;99237.16;135049;1275;22941;-80
2023/07/18 06:27:58;;;;;;;5.60;4.10;;;;;;;21.19;100.00;99238.22;135154;1272;22530;-81
2023/07/18 06:31:00;;;;;;;7.40;3.80;;;;;;;21.27;100.00;99240.70;135129;1275;22655;-81
2023/07/18 06:34:02;;;;;;;8.70;4.20;;;;;;;21.31;100.00;99240.77;135144;1275;25951;-81
2023/07/18 06:37:08;;;;;;;5.60;3.90;;;;;;;21.41;100.00;99244.78;136046;1268;22547;-81
2023/07/18 06:40:10;;;;;;;5.90;4.40;;;;;;;21.51;100.00;99250.71;134864;1275;22543;-81
2023/07/18 06:43:14;;;;;;;9.00;4.90;;;;;;;21.67;100.00;99255.97;136191;1275;22534;-82
2023/07/18 06:46:16;;;;;;;10.10;5.10;;;;;;;21.79;100.00;99258.86;136239;1275;22553;-79
2023/07/18 06:49:20;;;;;;;7.00;3.90;;;;;;;21.82;85.42;99261.27;134770;1275;23032;-79
2023/07/18 06:52:22;;;;;;;7.30;4.10;;;;;;;21.91;63.10;99261.18;134830;1272;22484;-78
2023/07/18 06:55:25;;;;;;;5.90;4.30;;;;;;;22.09;62.45;99266.04;135004;1275;22662;-79
2023/07/18 06:58:27;;;;;;;10.00;4.40;;;;;;;22.14;60.19;99267.50;135003;1275;24226;-79
2023/07/18 07:01:32;;;;;;;7.50;3.80;;;;;;;22.10;59.71;99265.63;134961;1275;23105;-83
2023/07/18 07:04:36;;;;;;;8.70;3.50;;;;;;;22.11;59.19;99271.30;135976;1275;22541;-81
2023/07/18 07:07:39;;;;;;;7.80;3.60;;;;;;;22.13;58.18;99276.20;134912;1275;22588;-82
2023/07/18 07:10:41;;;;;;;7.10;3.80;;;;;;;22.19;58.31;99277.06;134940;1275;22530;-80
2023/07/18 07:13:44;;;;;;;9.00;4.10;;;;;;;22.21;57.03;99280.03;134967;1275;25239;-80
2023/07/18 07:16:46;;;;;;;6.40;3.60;;;;;;;22.26;56.64;99282.92;136788;1275;22908;-79
2023/07/18 07:19:49;;;;;;;9.40;3.20;;;;;;;22.33;56.59;99282.73;136645;1274;22996;-80
2023/07/18 07:22:54;;;;;;;5.10;3.20;;;;;;;22.36;55.40;99278.91;136560;1275;22550;-80
2023/07/18 07:25:57;;;;;;;7.40;3.60;;;;;;;22.34;54.66;99281.98;136431;1274;22561;-79
2023/07/18 07:28:59;;;;;;;7.70;4.00;;;;;;;22.44;54.37;99276.91;136211;1274;22559;-81
2023/07/18 07:32:02;;;;;;;177.90;15.30;;;;;;;22.59;53.76;99282.69;136134;1275;22573;-79
2023/07/18 07:35:08;;;;;;;5.00;3.00;;;;;;;22.68;53.08;99277.09;135261;1274;22534;-78
2023/07/18 07:38:10;;;;;;;6.20;3.30;;;;;;;22.70;52.41;99276.48;135419;1272;22542;-81
2023/07/18 07:41:13;;;;;;;10.50;3.90;;;;;;;22.72;52.17;99267.92;135177;1274;22563;-80
2023/07/18 07:44:16;;;;;;;14.50;4.10;;;;;;;22.87;53.07;99268.56;135490;1275;22534;-80
2023/07/18 07:47:18;;;;;;;11.70;3.00;;;;;;;22.88;51.37;99264.26;135405;1274;23684;-80
2023/07/18 07:50:21;;;;;;;6.20;3.30;;;;;;;22.98;52.31;99267.87;135246;1274;22550;-79
2023/07/18 07:53:23;;;;;;;4.60;3.00;;;;;;;23.06;52.29;99273.10;135317;1274;22564;-80
2023/07/18 07:56:26;;;;;;;5.30;3.00;;;;;;;23.22;51.47;99269.38;135415;1274;22541;-80
2023/07/18 07:59:28;;;;;;;13.50;3.10;;;;;;;23.38;51.85;99277.21;135352;1274;22692;-81
2023/07/18 08:02:30;;;;;;;4.80;3.20;;;;;;;23.47;51.55;99273.02;136012;1275;23026;-80
2023/07/18 08:05:33;;;;;;;4.30;3.20;;;;;;;23.72;50.27;99279.47;136351;1274;22598;-80
2023/07/18 08:08:36;;;;;;;5.30;3.10;;;;;;;23.74;48.46;99284.03;136133;1275;22629;-82
2023/07/18 08:11:38;;;;;;;5.30;3.50;;;;;;;23.74;48.86;99276.73;136300;1274;26016;-83
2023/07/18 08:14:42;;;;;;;6.70;3.20;;;;;;;23.86;50.06;99278.12;136184;1274;22533;-82
2023/07/18 08:17:48;;;;;;;5.90;3.00;;;;;;;24.07;48.41;99281.44;136274;1255;22548;-83
2023/07/18 08:20:54;;;;;;;5.30;2.80;;;;;;;24.19;45.77;99290.08;135998;1275;23277;-83
2023/07/18 08:23:57;;;;;;;5.70;3.00;;;;;;;24.12;45.20;99279.67;136051;1274;22574;-80
2023/07/18 08:27:00;;;;;;;7.10;3.10;;;;;;;24.18;45.80;99279.98;136156;1272;22541;-80
2023/07/18 08:30:03;;;;;;;8.00;3.00;;;;;;;24.14;45.50;99282.60;136058;1274;22522;-79
2023/07/18 08:33:06;;;;;;;3.90;2.60;;;;;;;24.20;46.65;99272.27;136266;1274;22591;-84
2023/07/18 08:36:08;;;;;;;4.70;2.90;;;;;;;24.41;45.06;99280.42;136317;1275;22575;-81
2023/07/18 08:39:11;;;;;;;7.50;2.90;;;;;;;24.34;43.96;99277.50;136526;1274;22726;-82
2023/07/18 08:42:13;;;;;;;55.80;4.90;;;;;;;24.26;44.01;99271.70;136635;1274;22567;-80
2023/07/18 08:45:17;;;;;;;3.60;2.60;;;;;;;24.37;44.16;99274.34;135084;1275;23236;-81
2023/07/18 08:48:19;;;;;;;6.40;2.50;;;;;;;24.45;43.71;99268.70;135053;1274;22555;-80
2023/07/18 08:51:22;;;;;;;5.80;3.40;;;;;;;24.48;43.30;99271.46;135182;1274;25970;-80
2023/07/18 08:54:25;;;;;;;3.70;2.90;;;;;;;24.39;42.24;99277.13;136073;1274;23943;-79
2023/07/18 08:57:28;;;;;;;3.60;2.00;;;;;;;24.44;43.16;99278.54;135392;1275;22530;-80
2023/07/18 09:00:30;;;;;;;7.60;2.80;;;;;;;24.58;42.68;99278.35;135337;1274;22538;-79
2023/07/18 09:03:33;;;;;;;7.20;2.70;;;;;;;24.60;41.87;99277.39;135573;1274;25392;-80
2023/07/18 09:06:35;;;;;;;4.40;2.10;;;;;;;24.58;42.92;99271.77;136228;1274;22580;-78
2023/07/18 09:09:38;;;;;;;5.00;2.60;;;;;;;24.60;43.10;99272.77;135607;1275;23449;-80
2023/07/18 09:12:40;;;;;;;3.40;2.60;;;;;;;24.62;43.08;99268.75;135169;1272;24179;-81
2023/07/18 09:15:43;;;;;;;4.30;2.50;;;;;;;24.62;43.23;99262.35;135050;1274;24420;-81
2023/07/18 09:18:45;;;;;;;5.90;3.60;;;;;;;24.60;42.22;99265.46;136348;1274;22589;-79
2023/07/18 09:21:48;;;;;;;6.70;2.80;;;;;;;24.68;41.99;99263.70;136189;1274;22529;-79
2023/07/18 09:24:51;;;;;;;10.60;3.40;;;;;;;24.80;41.49;99263.45;135218;1275;22892;-79
2023/07/18 09:27:53;;;;;;;14.70;5.60;;;;;;;24.91;41.42;99264.26;135258;1274;24154;-78
2023/07/18 09:30:55;;;;;;;15.80;9.30;;;;;;;25.01;41.31;99258.17;135306;1275;25558;-81
2023/07/18 09:33:59;;;;;;;23.50;12.20;;;;;;;25.09;41.91;99254.14;136009;1275;25443;-80
2023/07/18 09:37:03;;;;;;;6.10;3.40;;;;;;;25.16;40.26;99262.23;135310;1274;22533;-81
2023/07/18 09:40:07;;;;;;;12.70;2.80;;;;;;;25.38;40.85;99255.27;135959;1274;25000;-81
2023/07/18 09:43:09;;;;;;;6.30;3.10;;;;;;;25.51;39.42;99258.09;136076;1274;22542;-79
2023/07/18 09:46:11;;;;;;;3.60;2.80;;;;;;;25.34;39.34;99253.65;135032;1274;22573;-79
2023/07/18 09:49:14;;;;;;;3.20;2.40;;;;;;;25.33;40.14;99251.70;135088;1275;22706;-77
2023/07/18 09:52:18;;;;;;;8.50;2.50;;;;;;;25.46;40.62;99246.55;135131;1274;22695;-77
2023/07/18 09:55:21;;;;;;;8.50;3.60;;;;;;;25.91;40.30;99239.63;135299;1274;22548;-79
2023/07/18 09:58:25;;;;;;;4.80;2.70;;;;;;;26.15;39.62;99247.00;135163;1275;22672;-79
2023/07/18 10:01:28;;;;;;;5.30;2.40;;;;;;;26.13;38.85;99239.05;134994;1275;22687;-78
2023/07/18 10:04:32;;;;;;;6.70;2.40;;;;;;;26.20;38.60;99243.17;135125;1275;22514;-78
2023/07/18 10:07:34;;;;;;;12.30;3.10;;;;;;;26.17;38.58;99241.33;135211;1275;22529;-79
2023/07/18 10:10:37;;;;;;;4.30;2.70;;;;;;;26.23;38.64;99244.09;135073;1274;25986;-77
2023/07/18 10:13:40;;;;;;;7.80;2.60;;;;;;;26.31;38.11;99245.35;135064;1275;22555;-76
2023/07/18 10:16:42;;;;;;;8.30;2.30;;;;;;;26.26;37.21;99241.45;135165;1274;24187;-77
2023/07/18 10:19:45;;;;;;;3.70;2.10;;;;;;;26.15;37.74;99234.85;135395;1269;22476;-77
2023/07/18 10:22:48;;;;;;;2.20;1.90;;;;;;;26.08;37.37;99235.52;135088;1275;23430;-81
2023/07/18 10:25:50;;;;;;;78.10;9.40;;;;;;;26.08;37.57;99229.08;136299;1275;22524;-81
2023/07/18 10:28:53;;;;;;;2.50;2.20;;;;;;;26.24;37.98;99221.94;136272;1274;22585;-82
2023/07/18 10:31:55;;;;;;;4.50;2.10;;;;;;;26.42;38.76;99222.23;135964;1274;22714;-81
2023/07/18 10:34:58;;;;;;;6.60;2.30;;;;;;;26.50;37.06;99224.31;135160;1274;21727;-82
2023/07/18 10:38:00;;;;;;;2.90;1.80;;;;;;;26.23;36.08;99218.94;135845;1274;22557;-81
2023/07/18 10:41:03;;;;;;;2.80;2.20;;;;;;;25.55;36.96;99218.92;135929;1274;22533;-81
2023/07/18 10:44:05;;;;;;;3.70;2.10;;;;;;;25.74;38.07;99213.27;135756;1274;22544;-81
2023/07/18 10:47:07;;;;;;;4.70;2.10;;;;;;;26.08;36.93;99211.08;136046;1275;22660;-80
2023/07/18 10:50:11;;;;;;;3.80;2.20;;;;;;;25.96;36.62;99209.84;135373;1275;25002;-80
2023/07/18 10:53:13;;;;;;;3.10;1.80;;;;;;;25.61;37.52;99208.28;136182;1266;22534;-80
2023/07/18 10:56:17;;;;;;;2.40;2.20;;;;;;;25.73;37.71;99209.05;135728;1274;23221;-81
2023/07/18 10:59:21;;;;;;;2.80;2.20;;;;;;;25.89;36.48;99206.57;135198;1275;22538;-80
2023/07/18 11:02:23;;;;;;;3.20;2.00;;;;;;;26.17;37.03;99198.73;135108;1274;22630;-81
2023/07/18 11:05:26;;;;;;;8.00;3.60;;;;;;;26.42;36.23;99197.04;135226;1274;25652;-82
2023/07/18 11:08:29;;;;;;;2.60;2.40;;;;;;;26.61;35.26;99203.62;135069;1274;22565;-82
2023/07/18 11:11:31;;;;;;;3.30;2.20;;;;;;;26.94;35.40;99202.77;136292;1274;22538;-82
2023/07/18 11:14:37;;;;;;;7.40;6.60;;;;;;;26.94;34.69;99197.42;135170;1272;22709;-80
2023/07/18 11:17:41;;;;;;;2.80;2.60;;;;;;;27.00;35.28;99188.56;135043;1263;22542;-82
2023/07/18 11:20:44;;;;;;;2.40;1.90;;;;;;;27.04;35.72;99184.29;136137;1275;23358;-81
2023/07/18 11:23:46;;;;;;;2.40;2.00;;;;;;;26.87;34.31;99188.66;136379;1275;22926;-79
2023/07/18 11:26:49;;;;;;;3.40;2.20;;;;;;;26.46;34.37;99192.55;134873;1275;22535;-80
2023/07/18 11:29:51;;;;;;;2.40;1.90;;;;;;;26.49;34.43;99180.66;134831;1275;199491;-80
2023/07/18 11:32:54;;;;;;;2.40;1.80;;;;;;;26.78;35.53;99177.66;135136;1275;25950;-81
2023/07/18 11:35:57;;;;;;;7.00;2.20;;;;;;;27.27;34.85;99173.13;136276;1274;22530;-80
2023/07/18 11:39:00;;;;;;;3.10;2.20;;;;;;;27.50;34.19;99165.30;136210;1275;22536;-81
2023/07/18 11:42:04;;;;;;;3.80;1.70;;;;;;;27.73;34.01;99155.36;135103;1275;22550;-82
2023/07/18 11:45:08;;;;;;;2.10;1.90;;;;;;;27.68;32.34;99154.91;135168;1275;24196;-80
2023/07/18 11:48:10;;;;;;;4.60;1.80;;;;;;;27.33;31.98;99150.66;135037;1275;22598;-81
2023/07/18 11:51:13;;;;;;;2.50;2.00;;;;;;;27.20;32.38;99145.75;134978;1275;22034;-80
2023/07/18 11:54:15;;;;;;;2.10;1.80;;;;;;;27.38;32.91;99151.46;135088;1275;23338;-80
2023/07/18 11:57:18;;;;;;;7.30;2.10;;;;;;;27.61;32.63;99141.16;136542;1274;22715;-81
2023/07/18 12:00:21;;;;;;;5.70;1.80;;;;;;;27.65;31.19;99146.48;134869;1274;22497;-81
2023/07/18 12:03:23;;;;;;;2.30;2.10;;;;;;;27.40;31.28;99149.02;136961;1274;25948;-80
2023/07/18 12:06:26;;;;;;;4.30;2.40;;;;;;;27.42;31.73;99146.74;134842;1274;23843;-80
2023/07/18 12:09:28;;;;;;;5.20;1.80;;;;;;;27.68;32.06;99135.61;134882;1275;22575;-81
2023/07/18 12:12:30;;;;;;;6.30;2.20;;;;;;;27.73;31.74;99134.81;134998;1275;22471;-78
2023/07/18 12:15:33;;;;;;;2.20;1.90;;;;;;;27.57;31.85;99133.87;134873;1274;22910;-79
2023/07/18 12:18:36;;;;;;;3.00;2.30;;;;;;;27.02;32.84;99137.55;134878;1274;23099;-80
2023/07/18 12:21:38;;;;;;;4.90;1.70;;;;;;;26.60;33.78;99138.52;136641;1275;23064;-81
2023/07/18 12:24:41;;;;;;;2.00;1.50;;;;;;;26.82;33.67;99131.55;136612;1275;22524;-80
2023/07/18 12:27:43;;;;;;;4.30;1.80;;;;;;;26.61;33.13;99131.16;134916;1274;22586;-80
2023/07/18 12:30:45;;;;;;;10.30;2.00;;;;;;;26.63;32.74;99128.41;135046;1260;22558;-81
2023/07/18 12:33:48;;;;;;;3.30;1.90;;;;;;;26.53;32.87;99125.33;135073;1274;22551;-80
2023/07/18 12:36:51;;;;;;;3.20;1.90;;;;;;;26.66;33.16;99125.73;135017;1272;24180;-82
2023/07/18 12:39:54;;;;;;;2.00;1.80;;;;;;;26.70;32.69;99117.34;135605;1253;22619;-81
2023/07/18 12:42:57;;;;;;;2.60;2.10;;;;;;;26.80;32.57;99114.17;135893;1274;22630;-79
2023/07/18 12:46:01;;;;;;;2.10;1.80;;;;;;;26.95;32.73;99108.60;136072;1273;22551;-80
2023/07/18 12:49:04;;;;;;;2.00;1.50;;;;;;;27.21;32.54;99115.33;136103;1275;22505;-79
2023/07/18 12:52:07;;;;;;;1.60;1.50;;;;;;;27.14;31.31;99113.89;135594;1275;24224;-80
2023/07/18 12:55:09;;;;;;;11.40;2.50;;;;;;;27.29;31.96;99106.00;136678;1274;22566;-80
2023/07/18 12:58:12;;;;;;;5.10;1.90;;;;;;;27.70;31.70;99103.52;135134;1274;22586;-83
2023/07/18 13:01:16;;;;;;;4.80;2.20;;;;;;;27.92;31.37;99109.47;136397;1274;22513;-81
2023/07/18 13:04:18;;;;;;;2.90;2.20;;;;;;;27.95;31.34;99110.58;136344;1274;22636;-79
2023/07/18 13:07:21;;;;;;;2.00;1.70;;;;;;;27.96;30.50;99108.20;136632;1275;22511;-80
2023/07/18 13:10:26;;;;;;;5.60;1.90;;;;;;;27.75;30.34;99103.25;136557;1274;22567;-79
2023/07/18 13:13:29;;;;;;;2.10;1.70;;;;;;;27.74;30.78;99097.38;136556;1275;22573;-80
2023/07/18 13:16:31;;;;;;;2.40;1.70;;;;;;;27.84;31.28;99090.92;134811;1274;26117;-81
2023/07/18 13:19:34;;;;;;;6.00;2.10;;;;;;;27.97;31.09;99093.48;136496;1275;22156;-80
2023/07/18 13:22:36;;;;;;;4.00;1.80;;;;;;;28.19;30.91;99077.90;134587;1263;22565;-81
2023/07/18 13:25:41;;;;;;;7.50;1.90;;;;;;;28.07;30.48;99085.73;134584;1274;22528;-82
2023/07/18 13:28:43;;;;;;;2.20;1.80;;;;;;;27.86;29.50;99083.48;134819;1274;22543;-80
2023/07/18 13:31:45;;;;;;;2.20;1.90;;;;;;;27.85;29.57;99078.73;135037;1274;25220;-83
2023/07/18 13:34:48;;;;;;;2.10;1.80;;;;;;;27.74;29.97;99080.58;136658;1272;22923;-80
2023/07/18 13:37:50;;;;;;;2.50;2.00;;;;;;;27.74;30.24;99072.15;134948;1275;22646;-80
2023/07/18 13:40:53;;;;;;;2.10;1.90;;;;;;;27.91;30.66;99067.86;134818;1275;22969;-79
2023/07/18 13:43:56;;;;;;;2.30;2.00;;;;;;;28.12;30.55;99055.58;134857;1274;25941;-81
2023/07/18 13:46:58;;;;;;;1.90;1.70;;;;;;;28.18;30.29;99052.02;135005;1274;23101;-80
2023/07/18 13:50:01;;;;;;;1.90;1.80;;;;;;;28.07;30.12;99046.77;135033;1275;22530;-80
2023/07/18 13:53:04;;;;;;;1.90;1.80;;;;;;;27.83;29.84;99057.01;135060;1274;22540;-82
2023/07/18 13:56:06;;;;;;;2.30;1.90;;;;;;;27.63;29.91;99052.89;135017;1274;22539;-81
2023/07/18 13:59:09;;;;;;;3.30;1.70;;;;;;;27.64;30.25;99045.02;135044;1274;22546;-81